sensor_id;sensor_type;location;lat;lon;timestamp;P1;durP1;ratioP1;P2;durP2;ratioP2
19798;SDS011;10059;59.850;10.454;2023-03-14T00:00:48;1.10;;;1.00;;
19798;SDS011;10059;59.850;10.454;2023-03-14T00:03:15;1.60;;;0.90;;
19798;SDS011;10059;59.850;10.454;2023-03-14T00:05:42;1.00;;;0.90;;
19798;SDS011;10059;59.850;10.454;2023-03-14T00:08:09;2.30;;;1.00;;
19798;SDS011;10059;59.850;10.454;2023-03-14T00:10:37;2.03;;;1.10;;
19798;SDS011;10059;59.850;10.454;2023-03-14T00:13:04;1.30;;;1.10;;
19798;SDS011;10059;59.850;10.454;2023-03-14T00:15:31;1.17;;;1.00;;
19798;SDS011;10059;59.850;10.454;2023-03-14T00:17:59;1.40;;;1.07;;
19798;SDS011;10059;59.850;10.454;2023-03-14T00:20:26;1.40;;;1.10;;
19798;SDS011;10059;59.850;10.454;2023-03-14T00:22:53;2.00;;;1.13;;
19798;SDS011;10059;59.850;10.454;2023-03-14T00:25:19;1.20;;;1.10;;
19798;SDS011;10059;59.850;10.454;2023-03-14T00:27:48;1.40;;;1.20;;
19798;SDS011;10059;59.850;10.454;2023-03-14T00:30:16;1.23;;;1.13;;
19798;SDS011;10059;59.850;10.454;2023-03-14T00:32:43;2.20;;;1.50;;
19798;SDS011;10059;59.850;10.454;2023-03-14T00:35:10;2.03;;;1.30;;
19798;SDS011;10059;59.850;10.454;2023-03-14T00:37:37;2.87;;;1.50;;
19798;SDS011;10059;59.850;10.454;2023-03-14T00:40:05;2.23;;;1.50;;
19798;SDS011;10059;59.850;10.454;2023-03-14T00:42:33;2.37;;;1.50;;
19798;SDS011;10059;59.850;10.454;2023-03-14T00:45:01;1.40;;;1.30;;
19798;SDS011;10059;59.850;10.454;2023-03-14T00:47:29;1.33;;;1.20;;
19798;SDS011;10059;59.850;10.454;2023-03-14T00:49:56;1.77;;;1.30;;
19798;SDS011;10059;59.850;10.454;2023-03-14T00:52:23;2.30;;;1.40;;
19798;SDS011;10059;59.850;10.454;2023-03-14T00:54:50;1.80;;;1.30;;
19798;SDS011;10059;59.850;10.454;2023-03-14T00:57:16;1.93;;;1.30;;
19798;SDS011;10059;59.850;10.454;2023-03-14T00:59:43;2.03;;;1.40;;
19798;SDS011;10059;59.850;10.454;2023-03-14T01:02:11;2.63;;;1.27;;
19798;SDS011;10059;59.850;10.454;2023-03-14T01:04:38;2.07;;;1.27;;
19798;SDS011;10059;59.850;10.454;2023-03-14T01:07:08;2.93;;;1.50;;
19798;SDS011;10059;59.850;10.454;2023-03-14T01:09:35;2.10;;;1.40;;
19798;SDS011;10059;59.850;10.454;2023-03-14T01:12:01;1.77;;;1.30;;
19798;SDS011;10059;59.850;10.454;2023-03-14T01:14:28;1.60;;;1.20;;
19798;SDS011;10059;59.850;10.454;2023-03-14T01:16:55;1.97;;;1.33;;
19798;SDS011;10059;59.850;10.454;2023-03-14T01:19:27;2.33;;;1.30;;
19798;SDS011;10059;59.850;10.454;2023-03-14T01:21:54;3.17;;;1.40;;
19798;SDS011;10059;59.850;10.454;2023-03-14T01:24:21;1.77;;;1.20;;
19798;SDS011;10059;59.850;10.454;2023-03-14T01:26:48;1.60;;;1.20;;
19798;SDS011;10059;59.850;10.454;2023-03-14T01:29:15;2.13;;;1.47;;
19798;SDS011;10059;59.850;10.454;2023-03-14T01:31:42;1.53;;;1.30;;
19798;SDS011;10059;59.850;10.454;2023-03-14T01:34:08;2.00;;;1.40;;
19798;SDS011;10059;59.850;10.454;2023-03-14T01:36:37;2.23;;;1.37;;
19798;SDS011;10059;59.850;10.454;2023-03-14T01:39:03;1.80;;;1.30;;
19798;SDS011;10059;59.850;10.454;2023-03-14T01:41:31;2.70;;;1.40;;
19798;SDS011;10059;59.850;10.454;2023-03-14T01:43:58;2.17;;;1.20;;
19798;SDS011;10059;59.850;10.454;2023-03-14T01:46:29;2.60;;;1.27;;
19798;SDS011;10059;59.850;10.454;2023-03-14T01:49:04;2.20;;;1.20;;
19798;SDS011;10059;59.850;10.454;2023-03-14T01:51:38;2.00;;;1.30;;
19798;SDS011;10059;59.850;10.454;2023-03-14T01:54:12;1.30;;;1.00;;
19798;SDS011;10059;59.850;10.454;2023-03-14T01:56:44;1.30;;;1.00;;
19798;SDS011;10059;59.850;10.454;2023-03-14T01:59:14;0.90;;;0.90;;
19798;SDS011;10059;59.850;10.454;2023-03-14T02:01:42;1.10;;;1.00;;
19798;SDS011;10059;59.850;10.454;2023-03-14T02:04:11;1.53;;;0.83;;
19798;SDS011;10059;59.850;10.454;2023-03-14T02:06:42;1.30;;;0.90;;
19798;SDS011;10059;59.850;10.454;2023-03-14T02:09:14;0.80;;;0.80;;
19798;SDS011;10059;59.850;10.454;2023-03-14T02:11:42;0.80;;;0.80;;
19798;SDS011;10059;59.850;10.454;2023-03-14T02:14:14;1.10;;;0.90;;
19798;SDS011;10059;59.850;10.454;2023-03-14T02:16:49;1.27;;;1.00;;
19798;SDS011;10059;59.850;10.454;2023-03-14T02:19:17;1.23;;;0.97;;
19798;SDS011;10059;59.850;10.454;2023-03-14T02:21:52;2.07;;;0.90;;
19798;SDS011;10059;59.850;10.454;2023-03-14T02:24:25;1.30;;;1.00;;
19798;SDS011;10059;59.850;10.454;2023-03-14T02:27:05;0.80;;;0.80;;
19798;SDS011;10059;59.850;10.454;2023-03-14T02:29:37;0.83;;;0.80;;
19798;SDS011;10059;59.850;10.454;2023-03-14T02:32:09;1.37;;;0.93;;
19798;SDS011;10059;59.850;10.454;2023-03-14T02:34:36;0.80;;;0.80;;
19798;SDS011;10059;59.850;10.454;2023-03-14T02:37:03;0.80;;;0.80;;
19798;SDS011;10059;59.850;10.454;2023-03-14T02:39:33;0.67;;;0.67;;
19798;SDS011;10059;59.850;10.454;2023-03-14T02:42:03;1.47;;;1.00;;
19798;SDS011;10059;59.850;10.454;2023-03-14T02:44:31;1.27;;;0.97;;
19798;SDS011;10059;59.850;10.454;2023-03-14T02:46:58;2.20;;;0.90;;
19798;SDS011;10059;59.850;10.454;2023-03-14T02:49:25;0.80;;;0.80;;
19798;SDS011;10059;59.850;10.454;2023-03-14T02:51:55;1.00;;;0.70;;
19798;SDS011;10059;59.850;10.454;2023-03-14T02:54:22;0.80;;;0.80;;
19798;SDS011;10059;59.850;10.454;2023-03-14T02:56:49;0.80;;;0.80;;
19798;SDS011;10059;59.850;10.454;2023-03-14T02:59:16;0.77;;;0.77;;
19798;SDS011;10059;59.850;10.454;2023-03-14T03:01:44;1.77;;;1.10;;
19798;SDS011;10059;59.850;10.454;2023-03-14T03:04:11;0.70;;;0.70;;
19798;SDS011;10059;59.850;10.454;2023-03-14T03:06:37;1.17;;;0.90;;
19798;SDS011;10059;59.850;10.454;2023-03-14T03:09:04;1.43;;;0.90;;
19798;SDS011;10059;59.850;10.454;2023-03-14T03:11:31;0.70;;;0.70;;
19798;SDS011;10059;59.850;10.454;2023-03-14T03:13:58;2.50;;;0.80;;
19798;SDS011;10059;59.850;10.454;2023-03-14T03:16:25;0.77;;;0.70;;
19798;SDS011;10059;59.850;10.454;2023-03-14T03:18:53;0.80;;;0.70;;
19798;SDS011;10059;59.850;10.454;2023-03-14T03:21:20;0.90;;;0.80;;
19798;SDS011;10059;59.850;10.454;2023-03-14T03:23:48;1.00;;;0.70;;
19798;SDS011;10059;59.850;10.454;2023-03-14T03:26:15;0.77;;;0.73;;
19798;SDS011;10059;59.850;10.454;2023-03-14T03:28:42;0.67;;;0.67;;
19798;SDS011;10059;59.850;10.454;2023-03-14T03:31:09;0.90;;;0.80;;
19798;SDS011;10059;59.850;10.454;2023-03-14T03:33:37;1.30;;;0.80;;
19798;SDS011;10059;59.850;10.454;2023-03-14T03:36:06;1.07;;;0.70;;
19798;SDS011;10059;59.850;10.454;2023-03-14T03:38:34;0.80;;;0.70;;
19798;SDS011;10059;59.850;10.454;2023-03-14T03:41:02;0.70;;;0.70;;
19798;SDS011;10059;59.850;10.454;2023-03-14T03:43:30;0.90;;;0.80;;
19798;SDS011;10059;59.850;10.454;2023-03-14T03:45:57;0.87;;;0.80;;
19798;SDS011;10059;59.850;10.454;2023-03-14T03:48:24;1.10;;;0.80;;
19798;SDS011;10059;59.850;10.454;2023-03-14T03:50:51;0.83;;;0.80;;
19798;SDS011;10059;59.850;10.454;2023-03-14T03:53:19;0.80;;;0.80;;
19798;SDS011;10059;59.850;10.454;2023-03-14T03:55:46;0.83;;;0.80;;
19798;SDS011;10059;59.850;10.454;2023-03-14T03:58:12;0.77;;;0.77;;
19798;SDS011;10059;59.850;10.454;2023-03-14T04:00:39;0.70;;;0.70;;
19798;SDS011;10059;59.850;10.454;2023-03-14T04:03:07;0.70;;;0.70;;
19798;SDS011;10059;59.850;10.454;2023-03-14T04:05:34;2.03;;;0.70;;
19798;SDS011;10059;59.850;10.454;2023-03-14T04:08:00;0.70;;;0.70;;
19798;SDS011;10059;59.850;10.454;2023-03-14T04:10:29;0.70;;;0.67;;
19798;SDS011;10059;59.850;10.454;2023-03-14T04:12:59;0.80;;;0.80;;
19798;SDS011;10059;59.850;10.454;2023-03-14T04:15:26;0.70;;;0.70;;
19798;SDS011;10059;59.850;10.454;2023-03-14T04:17:55;0.80;;;0.80;;
19798;SDS011;10059;59.850;10.454;2023-03-14T04:20:22;1.57;;;1.13;;
19798;SDS011;10059;59.850;10.454;2023-03-14T04:22:49;2.00;;;1.70;;
19798;SDS011;10059;59.850;10.454;2023-03-14T04:25:16;1.40;;;0.73;;
19798;SDS011;10059;59.850;10.454;2023-03-14T04:27:46;1.10;;;1.00;;
19798;SDS011;10059;59.850;10.454;2023-03-14T04:30:13;0.90;;;0.80;;
19798;SDS011;10059;59.850;10.454;2023-03-14T04:32:40;1.10;;;0.90;;
19798;SDS011;10059;59.850;10.454;2023-03-14T04:35:07;1.00;;;0.80;;
19798;SDS011;10059;59.850;10.454;2023-03-14T04:37:34;0.70;;;0.70;;
19798;SDS011;10059;59.850;10.454;2023-03-14T04:40:01;1.00;;;0.83;;
19798;SDS011;10059;59.850;10.454;2023-03-14T04:42:31;1.37;;;0.80;;
19798;SDS011;10059;59.850;10.454;2023-03-14T04:44:59;0.97;;;0.73;;
19798;SDS011;10059;59.850;10.454;2023-03-14T04:47:26;2.20;;;1.00;;
19798;SDS011;10059;59.850;10.454;2023-03-14T04:49:53;1.70;;;1.30;;
19798;SDS011;10059;59.850;10.454;2023-03-14T04:52:20;1.17;;;1.00;;
19798;SDS011;10059;59.850;10.454;2023-03-14T04:54:47;1.70;;;1.10;;
19798;SDS011;10059;59.850;10.454;2023-03-14T04:57:14;1.00;;;0.80;;
19798;SDS011;10059;59.850;10.454;2023-03-14T04:59:41;1.10;;;0.80;;
19798;SDS011;10059;59.850;10.454;2023-03-14T05:02:09;1.00;;;0.90;;
19798;SDS011;10059;59.850;10.454;2023-03-14T05:04:36;1.07;;;0.80;;
19798;SDS011;10059;59.850;10.454;2023-03-14T05:07:03;0.70;;;0.70;;
19798;SDS011;10059;59.850;10.454;2023-03-14T05:09:30;1.17;;;0.97;;
19798;SDS011;10059;59.850;10.454;2023-03-14T05:11:57;1.50;;;1.07;;
19798;SDS011;10059;59.850;10.454;2023-03-14T05:14:23;7.43;;;2.73;;
19798;SDS011;10059;59.850;10.454;2023-03-14T05:16:50;3.77;;;2.13;;
19798;SDS011;10059;59.850;10.454;2023-03-14T05:19:18;1.90;;;1.30;;
19798;SDS011;10059;59.850;10.454;2023-03-14T05:21:45;2.17;;;1.57;;
19798;SDS011;10059;59.850;10.454;2023-03-14T05:24:12;8.17;;;5.07;;
19798;SDS011;10059;59.850;10.454;2023-03-14T05:26:39;6.23;;;3.40;;
19798;SDS011;10059;59.850;10.454;2023-03-14T05:29:06;2.20;;;1.37;;
19798;SDS011;10059;59.850;10.454;2023-03-14T05:31:32;3.03;;;2.30;;
19798;SDS011;10059;59.850;10.454;2023-03-14T05:33:59;1.20;;;1.10;;
19798;SDS011;10059;59.850;10.454;2023-03-14T05:36:27;0.90;;;0.80;;
19798;SDS011;10059;59.850;10.454;2023-03-14T05:38:54;2.47;;;1.93;;
19798;SDS011;10059;59.850;10.454;2023-03-14T05:41:21;2.00;;;1.70;;
19798;SDS011;10059;59.850;10.454;2023-03-14T05:43:48;2.20;;;1.70;;
19798;SDS011;10059;59.850;10.454;2023-03-14T05:46:15;2.33;;;1.60;;
19798;SDS011;10059;59.850;10.454;2023-03-14T05:48:41;2.10;;;1.30;;
19798;SDS011;10059;59.850;10.454;2023-03-14T05:51:08;10.00;;;4.17;;
19798;SDS011;10059;59.850;10.454;2023-03-14T05:53:36;4.33;;;2.20;;
19798;SDS011;10059;59.850;10.454;2023-03-14T05:56:03;2.00;;;1.10;;
19798;SDS011;10059;59.850;10.454;2023-03-14T05:58:31;1.47;;;1.10;;
19798;SDS011;10059;59.850;10.454;2023-03-14T06:00:58;1.80;;;1.30;;
19798;SDS011;10059;59.850;10.454;2023-03-14T06:03:28;1.17;;;0.90;;
19798;SDS011;10059;59.850;10.454;2023-03-14T06:05:55;1.67;;;1.10;;
19798;SDS011;10059;59.850;10.454;2023-03-14T06:08:22;1.17;;;0.97;;
19798;SDS011;10059;59.850;10.454;2023-03-14T06:10:50;0.83;;;0.80;;
19798;SDS011;10059;59.850;10.454;2023-03-14T06:13:17;3.07;;;1.23;;
19798;SDS011;10059;59.850;10.454;2023-03-14T06:15:44;2.03;;;0.97;;
19798;SDS011;10059;59.850;10.454;2023-03-14T06:18:10;2.20;;;1.67;;
19798;SDS011;10059;59.850;10.454;2023-03-14T06:20:39;1.83;;;1.27;;
19798;SDS011;10059;59.850;10.454;2023-03-14T06:23:06;2.27;;;1.77;;
19798;SDS011;10059;59.850;10.454;2023-03-14T06:25:33;3.43;;;1.83;;
19798;SDS011;10059;59.850;10.454;2023-03-14T06:28:02;3.33;;;1.93;;
19798;SDS011;10059;59.850;10.454;2023-03-14T06:30:29;3.23;;;2.03;;
19798;SDS011;10059;59.850;10.454;2023-03-14T06:32:56;5.13;;;2.67;;
19798;SDS011;10059;59.850;10.454;2023-03-14T06:35:23;5.33;;;2.53;;
19798;SDS011;10059;59.850;10.454;2023-03-14T06:37:50;3.40;;;2.10;;
19798;SDS011;10059;59.850;10.454;2023-03-14T06:40:17;5.53;;;3.67;;
19798;SDS011;10059;59.850;10.454;2023-03-14T06:42:44;8.50;;;3.60;;
19798;SDS011;10059;59.850;10.454;2023-03-14T06:45:12;6.97;;;2.87;;
19798;SDS011;10059;59.850;10.454;2023-03-14T06:47:39;6.73;;;3.27;;
19798;SDS011;10059;59.850;10.454;2023-03-14T06:50:06;3.43;;;1.77;;
19798;SDS011;10059;59.850;10.454;2023-03-14T06:52:35;4.30;;;1.97;;
19798;SDS011;10059;59.850;10.454;2023-03-14T06:55:02;4.73;;;2.00;;
19798;SDS011;10059;59.850;10.454;2023-03-14T06:57:29;4.50;;;2.53;;
19798;SDS011;10059;59.850;10.454;2023-03-14T06:59:56;6.77;;;2.63;;
19798;SDS011;10059;59.850;10.454;2023-03-14T07:02:24;3.63;;;1.80;;
19798;SDS011;10059;59.850;10.454;2023-03-14T07:04:51;5.00;;;2.27;;
19798;SDS011;10059;59.850;10.454;2023-03-14T07:07:18;4.60;;;2.70;;
19798;SDS011;10059;59.850;10.454;2023-03-14T07:09:45;4.07;;;2.20;;
19798;SDS011;10059;59.850;10.454;2023-03-14T07:12:12;5.33;;;1.87;;
19798;SDS011;10059;59.850;10.454;2023-03-14T07:14:38;0.60;;;0.60;;
19798;SDS011;10059;59.850;10.454;2023-03-14T07:17:05;0.70;;;0.60;;
19798;SDS011;10059;59.850;10.454;2023-03-14T07:19:33;1.87;;;0.87;;
19798;SDS011;10059;59.850;10.454;2023-03-14T07:22:00;0.83;;;0.60;;
19798;SDS011;10059;59.850;10.454;2023-03-14T07:24:27;1.40;;;0.90;;
19798;SDS011;10059;59.850;10.454;2023-03-14T07:26:54;0.87;;;0.70;;
19798;SDS011;10059;59.850;10.454;2023-03-14T07:29:21;0.50;;;0.50;;
19798;SDS011;10059;59.850;10.454;2023-03-14T07:31:48;0.80;;;0.70;;
19798;SDS011;10059;59.850;10.454;2023-03-14T07:34:14;0.50;;;0.50;;
19798;SDS011;10059;59.850;10.454;2023-03-14T07:36:42;0.50;;;0.50;;
19798;SDS011;10059;59.850;10.454;2023-03-14T07:39:09;4.33;;;1.93;;
19798;SDS011;10059;59.850;10.454;2023-03-14T07:41:36;1.53;;;1.03;;
19798;SDS011;10059;59.850;10.454;2023-03-14T07:44:03;1.30;;;0.70;;
19798;SDS011;10059;59.850;10.454;2023-03-14T07:46:30;1.87;;;1.17;;
19798;SDS011;10059;59.850;10.454;2023-03-14T07:48:57;2.33;;;0.60;;
19798;SDS011;10059;59.850;10.454;2023-03-14T07:51:24;1.13;;;0.83;;
19798;SDS011;10059;59.850;10.454;2023-03-14T07:53:52;0.67;;;0.60;;
19798;SDS011;10059;59.850;10.454;2023-03-14T07:56:19;0.63;;;0.60;;
19798;SDS011;10059;59.850;10.454;2023-03-14T07:58:45;2.00;;;0.83;;
19798;SDS011;10059;59.850;10.454;2023-03-14T08:01:12;1.00;;;0.90;;
19798;SDS011;10059;59.850;10.454;2023-03-14T08:03:40;3.43;;;1.47;;
19798;SDS011;10059;59.850;10.454;2023-03-14T08:06:07;2.17;;;1.00;;
19798;SDS011;10059;59.850;10.454;2023-03-14T08:08:33;2.07;;;0.90;;
19798;SDS011;10059;59.850;10.454;2023-03-14T08:11:05;1.27;;;0.90;;
19798;SDS011;10059;59.850;10.454;2023-03-14T08:13:33;1.80;;;1.10;;
19798;SDS011;10059;59.850;10.454;2023-03-14T08:16:00;1.10;;;0.70;;
19798;SDS011;10059;59.850;10.454;2023-03-14T08:18:27;0.93;;;0.70;;
19798;SDS011;10059;59.850;10.454;2023-03-14T08:20:54;1.10;;;0.70;;
19798;SDS011;10059;59.850;10.454;2023-03-14T08:23:21;2.03;;;0.80;;
19798;SDS011;10059;59.850;10.454;2023-03-14T08:25:48;1.50;;;0.83;;
19798;SDS011;10059;59.850;10.454;2023-03-14T08:28:17;1.87;;;0.90;;
19798;SDS011;10059;59.850;10.454;2023-03-14T08:30:44;1.50;;;0.80;;
19798;SDS011;10059;59.850;10.454;2023-03-14T08:33:11;0.83;;;0.70;;
19798;SDS011;10059;59.850;10.454;2023-03-14T08:35:38;1.30;;;0.83;;
19798;SDS011;10059;59.850;10.454;2023-03-14T08:38:05;3.13;;;1.20;;
19798;SDS011;10059;59.850;10.454;2023-03-14T08:40:32;1.80;;;0.90;;
19798;SDS011;10059;59.850;10.454;2023-03-14T08:42:58;2.20;;;0.80;;
19798;SDS011;10059;59.850;10.454;2023-03-14T08:45:27;0.70;;;0.70;;
19798;SDS011;10059;59.850;10.454;2023-03-14T08:47:53;0.93;;;0.70;;
19798;SDS011;10059;59.850;10.454;2023-03-14T08:50:20;0.50;;;0.50;;
19798;SDS011;10059;59.850;10.454;2023-03-14T08:52:48;1.17;;;0.50;;
19798;SDS011;10059;59.850;10.454;2023-03-14T08:55:15;0.50;;;0.50;;
19798;SDS011;10059;59.850;10.454;2023-03-14T08:57:42;0.80;;;0.60;;
19798;SDS011;10059;59.850;10.454;2023-03-14T09:00:09;0.53;;;0.50;;
19798;SDS011;10059;59.850;10.454;2023-03-14T09:02:40;0.90;;;0.60;;
19798;SDS011;10059;59.850;10.454;2023-03-14T09:05:08;0.60;;;0.60;;
19798;SDS011;10059;59.850;10.454;2023-03-14T09:07:35;0.80;;;0.60;;
19798;SDS011;10059;59.850;10.454;2023-03-14T09:10:02;0.60;;;0.60;;
19798;SDS011;10059;59.850;10.454;2023-03-14T09:12:29;0.50;;;0.50;;
19798;SDS011;10059;59.850;10.454;2023-03-14T09:14:56;3.37;;;0.60;;
19798;SDS011;10059;59.850;10.454;2023-03-14T09:17:23;0.60;;;0.60;;
19798;SDS011;10059;59.850;10.454;2023-03-14T09:19:51;0.93;;;0.70;;
19798;SDS011;10059;59.850;10.454;2023-03-14T09:22:18;2.23;;;0.97;;
19798;SDS011;10059;59.850;10.454;2023-03-14T09:24:45;1.30;;;0.70;;
19798;SDS011;10059;59.850;10.454;2023-03-14T09:27:12;0.70;;;0.70;;
19798;SDS011;10059;59.850;10.454;2023-03-14T09:29:39;0.80;;;0.50;;
19798;SDS011;10059;59.850;10.454;2023-03-14T09:32:06;2.57;;;0.60;;
19798;SDS011;10059;59.850;10.454;2023-03-14T09:34:33;0.40;;;0.40;;
19798;SDS011;10059;59.850;10.454;2023-03-14T09:37:01;2.13;;;0.60;;
19798;SDS011;10059;59.850;10.454;2023-03-14T09:39:28;1.00;;;0.60;;
19798;SDS011;10059;59.850;10.454;2023-03-14T09:41:55;1.00;;;0.60;;
19798;SDS011;10059;59.850;10.454;2023-03-14T09:44:28;0.77;;;0.60;;
19798;SDS011;10059;59.850;10.454;2023-03-14T09:46:57;0.70;;;0.60;;
19798;SDS011;10059;59.850;10.454;2023-03-14T09:49:29;0.70;;;0.60;;
19798;SDS011;10059;59.850;10.454;2023-03-14T09:51:58;2.10;;;0.60;;
19798;SDS011;10059;59.850;10.454;2023-03-14T09:54:31;1.57;;;0.80;;
19798;SDS011;10059;59.850;10.454;2023-03-14T09:57:01;2.10;;;0.60;;
19798;SDS011;10059;59.850;10.454;2023-03-14T09:59:29;0.50;;;0.50;;
19798;SDS011;10059;59.850;10.454;2023-03-14T10:01:58;0.67;;;0.63;;
19798;SDS011;10059;59.850;10.454;2023-03-14T10:04:27;1.00;;;0.60;;
19798;SDS011;10059;59.850;10.454;2023-03-14T10:06:57;0.60;;;0.60;;
19798;SDS011;10059;59.850;10.454;2023-03-14T10:09:24;0.60;;;0.60;;
19798;SDS011;10059;59.850;10.454;2023-03-14T10:11:53;0.93;;;0.60;;
19798;SDS011;10059;59.850;10.454;2023-03-14T10:14:28;0.77;;;0.50;;
19798;SDS011;10059;59.850;10.454;2023-03-14T10:17:04;0.77;;;0.53;;
19798;SDS011;10059;59.850;10.454;2023-03-14T10:19:33;1.00;;;0.70;;
19798;SDS011;10059;59.850;10.454;2023-03-14T10:22:01;1.00;;;0.73;;
19798;SDS011;10059;59.850;10.454;2023-03-14T10:24:30;1.73;;;0.70;;
19798;SDS011;10059;59.850;10.454;2023-03-14T10:27:00;0.57;;;0.53;;
19798;SDS011;10059;59.850;10.454;2023-03-14T10:29:28;1.27;;;0.80;;
19798;SDS011;10059;59.850;10.454;2023-03-14T10:31:58;1.80;;;0.50;;
19798;SDS011;10059;59.850;10.454;2023-03-14T10:34:28;1.27;;;0.50;;
19798;SDS011;10059;59.850;10.454;2023-03-14T10:36:57;1.03;;;0.60;;
19798;SDS011;10059;59.850;10.454;2023-03-14T10:39:26;0.70;;;0.53;;
19798;SDS011;10059;59.850;10.454;2023-03-14T10:42:03;0.77;;;0.50;;
19798;SDS011;10059;59.850;10.454;2023-03-14T10:44:33;0.90;;;0.50;;
19798;SDS011;10059;59.850;10.454;2023-03-14T10:47:02;0.40;;;0.40;;
19798;SDS011;10059;59.850;10.454;2023-03-14T10:49:31;2.37;;;0.30;;
19798;SDS011;10059;59.850;10.454;2023-03-14T10:52:12;0.60;;;0.40;;
19798;SDS011;10059;59.850;10.454;2023-03-14T10:54:41;0.30;;;0.30;;
19798;SDS011;10059;59.850;10.454;2023-03-14T10:57:14;0.77;;;0.40;;
19798;SDS011;10059;59.850;10.454;2023-03-14T10:59:41;1.07;;;0.40;;
19798;SDS011;10059;59.850;10.454;2023-03-14T11:02:22;1.37;;;0.70;;
19798;SDS011;10059;59.850;10.454;2023-03-14T11:05:10;1.37;;;0.50;;
19798;SDS011;10059;59.850;10.454;2023-03-14T11:07:45;0.77;;;0.53;;
19798;SDS011;10059;59.850;10.454;2023-03-14T11:10:14;0.50;;;0.40;;
19798;SDS011;10059;59.850;10.454;2023-03-14T11:12:51;1.10;;;0.40;;
19798;SDS011;10059;59.850;10.454;2023-03-14T11:15:32;0.93;;;0.50;;
19798;SDS011;10059;59.850;10.454;2023-03-14T11:18:12;0.73;;;0.40;;
19798;SDS011;10059;59.850;10.454;2023-03-14T11:20:58;0.50;;;0.40;;
19798;SDS011;10059;59.850;10.454;2023-03-14T11:23:30;2.10;;;0.50;;
19798;SDS011;10059;59.850;10.454;2023-03-14T11:26:00;0.47;;;0.40;;
19798;SDS011;10059;59.850;10.454;2023-03-14T11:28:37;1.20;;;0.47;;
19798;SDS011;10059;59.850;10.454;2023-03-14T11:31:07;2.63;;;0.50;;
19798;SDS011;10059;59.850;10.454;2023-03-14T11:33:45;0.70;;;0.60;;
19798;SDS011;10059;59.850;10.454;2023-03-14T11:36:18;0.67;;;0.50;;
19798;SDS011;10059;59.850;10.454;2023-03-14T11:38:48;1.70;;;0.60;;
19798;SDS011;10059;59.850;10.454;2023-03-14T11:41:17;0.70;;;0.60;;
19798;SDS011;10059;59.850;10.454;2023-03-14T11:43:48;0.53;;;0.40;;
19798;SDS011;10059;59.850;10.454;2023-03-14T11:46:20;2.30;;;0.47;;
19798;SDS011;10059;59.850;10.454;2023-03-14T11:48:54;1.07;;;0.40;;
19798;SDS011;10059;59.850;10.454;2023-03-14T11:51:28;0.60;;;0.40;;
19798;SDS011;10059;59.850;10.454;2023-03-14T11:54:00;2.33;;;0.40;;
19798;SDS011;10059;59.850;10.454;2023-03-14T11:56:32;0.30;;;0.30;;
19798;SDS011;10059;59.850;10.454;2023-03-14T11:59:04;0.90;;;0.60;;
19798;SDS011;10059;59.850;10.454;2023-03-14T12:01:39;0.80;;;0.40;;
19798;SDS011;10059;59.850;10.454;2023-03-14T12:04:15;0.77;;;0.37;;
19798;SDS011;10059;59.850;10.454;2023-03-14T12:06:58;3.83;;;0.50;;
19798;SDS011;10059;59.850;10.454;2023-03-14T12:09:28;2.50;;;0.43;;
19798;SDS011;10059;59.850;10.454;2023-03-14T12:11:57;0.87;;;0.40;;
19798;SDS011;10059;59.850;10.454;2023-03-14T12:14:27;0.70;;;0.30;;
19798;SDS011;10059;59.850;10.454;2023-03-14T12:16:57;1.80;;;0.40;;
19798;SDS011;10059;59.850;10.454;2023-03-14T12:19:26;0.93;;;0.40;;
19798;SDS011;10059;59.850;10.454;2023-03-14T12:21:59;0.30;;;0.30;;
19798;SDS011;10059;59.850;10.454;2023-03-14T12:24:33;1.37;;;0.50;;
19798;SDS011;10059;59.850;10.454;2023-03-14T12:27:02;1.67;;;0.40;;
19798;SDS011;10059;59.850;10.454;2023-03-14T12:29:33;0.63;;;0.30;;
19798;SDS011;10059;59.850;10.454;2023-03-14T12:32:24;0.97;;;0.40;;
19798;SDS011;10059;59.850;10.454;2023-03-14T12:34:51;1.10;;;0.40;;
19798;SDS011;10059;59.850;10.454;2023-03-14T12:37:23;0.93;;;0.40;;
19798;SDS011;10059;59.850;10.454;2023-03-14T12:39:58;1.30;;;0.40;;
19798;SDS011;10059;59.850;10.454;2023-03-14T12:42:38;2.27;;;0.40;;
19798;SDS011;10059;59.850;10.454;2023-03-14T12:45:21;0.83;;;0.30;;
19798;SDS011;10059;59.850;10.454;2023-03-14T12:48:00;0.80;;;0.40;;
19798;SDS011;10059;59.850;10.454;2023-03-14T12:50:43;1.17;;;0.30;;
19798;SDS011;10059;59.850;10.454;2023-03-14T12:56:23;0.57;;;0.30;;
19798;SDS011;10059;59.850;10.454;2023-03-14T13:02:00;0.40;;;0.20;;
19798;SDS011;10059;59.850;10.454;2023-03-14T13:04:45;0.83;;;0.50;;
19798;SDS011;10059;59.850;10.454;2023-03-14T13:07:15;1.03;;;0.30;;
19798;SDS011;10059;59.850;10.454;2023-03-14T13:09:59;3.23;;;0.40;;
19798;SDS011;10059;59.850;10.454;2023-03-14T13:12:30;0.90;;;0.40;;
19798;SDS011;10059;59.850;10.454;2023-03-14T13:15:11;0.80;;;0.30;;
19798;SDS011;10059;59.850;10.454;2023-03-14T13:17:45;0.40;;;0.30;;
19798;SDS011;10059;59.850;10.454;2023-03-14T13:20:14;1.03;;;0.47;;
19798;SDS011;10059;59.850;10.454;2023-03-14T13:22:47;0.80;;;0.40;;
19798;SDS011;10059;59.850;10.454;2023-03-14T13:25:15;0.93;;;0.50;;
19798;SDS011;10059;59.850;10.454;2023-03-14T13:27:43;0.77;;;0.30;;
19798;SDS011;10059;59.850;10.454;2023-03-14T13:30:14;0.73;;;0.30;;
19798;SDS011;10059;59.850;10.454;2023-03-14T13:32:45;0.67;;;0.30;;
19798;SDS011;10059;59.850;10.454;2023-03-14T13:35:17;0.80;;;0.33;;
19798;SDS011;10059;59.850;10.454;2023-03-14T13:37:46;0.60;;;0.37;;
19798;SDS011;10059;59.850;10.454;2023-03-14T13:43:02;0.50;;;0.20;;
19798;SDS011;10059;59.850;10.454;2023-03-14T13:45:41;0.90;;;0.30;;
19798;SDS011;10059;59.850;10.454;2023-03-14T13:48:12;0.73;;;0.30;;
19798;SDS011;10059;59.850;10.454;2023-03-14T13:50:44;1.27;;;0.30;;
19798;SDS011;10059;59.850;10.454;2023-03-14T13:53:12;2.00;;;0.40;;
19798;SDS011;10059;59.850;10.454;2023-03-14T13:55:39;0.53;;;0.30;;
19798;SDS011;10059;59.850;10.454;2023-03-14T13:58:10;0.43;;;0.30;;
19798;SDS011;10059;59.850;10.454;2023-03-14T14:00:45;0.43;;;0.30;;
19798;SDS011;10059;59.850;10.454;2023-03-14T14:03:33;0.53;;;0.30;;
19798;SDS011;10059;59.850;10.454;2023-03-14T14:06:03;0.20;;;0.20;;
19798;SDS011;10059;59.850;10.454;2023-03-14T14:08:32;1.43;;;0.40;;
19798;SDS011;10059;59.850;10.454;2023-03-14T14:11:00;0.53;;;0.30;;
19798;SDS011;10059;59.850;10.454;2023-03-14T14:13:29;0.40;;;0.30;;
19798;SDS011;10059;59.850;10.454;2023-03-14T14:16:01;0.47;;;0.30;;
19798;SDS011;10059;59.850;10.454;2023-03-14T14:18:29;1.43;;;0.30;;
19798;SDS011;10059;59.850;10.454;2023-03-14T14:20:59;0.53;;;0.30;;
19798;SDS011;10059;59.850;10.454;2023-03-14T14:23:26;0.60;;;0.30;;
19798;SDS011;10059;59.850;10.454;2023-03-14T14:25:54;0.30;;;0.30;;
19798;SDS011;10059;59.850;10.454;2023-03-14T14:28:24;0.67;;;0.40;;
19798;SDS011;10059;59.850;10.454;2023-03-14T14:31:00;0.63;;;0.40;;
19798;SDS011;10059;59.850;10.454;2023-03-14T14:33:29;0.50;;;0.23;;
19798;SDS011;10059;59.850;10.454;2023-03-14T14:36:05;1.37;;;0.40;;
19798;SDS011;10059;59.850;10.454;2023-03-14T14:38:49;0.20;;;0.20;;
19798;SDS011;10059;59.850;10.454;2023-03-14T14:41:17;1.27;;;0.73;;
19798;SDS011;10059;59.850;10.454;2023-03-14T14:43:44;2.50;;;0.50;;
19798;SDS011;10059;59.850;10.454;2023-03-14T14:46:13;2.50;;;0.57;;
19798;SDS011;10059;59.850;10.454;2023-03-14T14:48:44;0.60;;;0.37;;
19798;SDS011;10059;59.850;10.454;2023-03-14T14:51:21;0.40;;;0.40;;
19798;SDS011;10059;59.850;10.454;2023-03-14T14:53:59;1.07;;;0.30;;